Terminal Aerodrome Forecast
Issued by NWS

Home | Current Version | Previous Version | Text Only | Print | Product List | Glossary On
Versions: 1 2 3 4 5 6 7 8 9 10 11 12 13 14 15
264
FTUS43 KICT 200520
TAFCNU
TAF
KCNU 200520Z 2006/2106 17017KT P6SM SKC WS020/19048KT
     FM201500 19022G26KT P6SM SCT025
     FM201800 19022G26KT P6SM BKN035
     FM202300 18013KT P6SM BKN040=

USA.gov is the U.S. government's official web portal to all federal, state and local government web resources and services.